createdAt,value
2019-03-13T00:00:57.523Z,34.93
2019-03-13T00:03:24.276Z,35.79
2019-03-13T00:05:50.886Z,35.41
2019-03-13T00:08:17.707Z,35.56
2019-03-13T00:10:44.307Z,35.49
2019-03-13T00:13:10.681Z,35.39
2019-03-13T00:15:37.009Z,35.33
2019-03-13T00:18:04.130Z,35.34
2019-03-13T00:20:30.539Z,35.60
2019-03-13T00:22:56.891Z,34.58
2019-03-13T00:25:23.609Z,34.72
2019-03-13T00:27:50.334Z,34.54
2019-03-13T00:30:16.859Z,34.80
2019-03-13T00:32:43.257Z,34.73
2019-03-13T00:35:09.873Z,34.50
2019-03-13T00:37:36.326Z,33.57
2019-03-13T00:40:06.248Z,34.26
2019-03-13T00:42:32.626Z,33.76
2019-03-13T00:44:59.231Z,33.50
2019-03-13T00:47:25.918Z,33.10
2019-03-13T00:49:52.243Z,33.81
2019-03-13T00:52:18.585Z,32.92
2019-03-13T00:54:44.925Z,33.23
2019-03-13T00:57:11.635Z,33.53
2019-03-13T00:59:37.972Z,33.83
2019-03-13T01:02:12.168Z,34.24
2019-03-13T01:04:40.769Z,33.74
2019-03-13T01:07:07.103Z,34.08
2019-03-13T01:09:34.551Z,34.07
2019-03-13T01:12:01.845Z,34.27
2019-03-13T01:14:28.534Z,34.62
2019-03-13T01:16:55.393Z,35.17
2019-03-13T01:19:21.823Z,35.25
2019-03-13T01:21:48.174Z,35.96
2019-03-13T01:24:14.507Z,35.66
2019-03-13T01:26:41.257Z,36.27
2019-03-13T01:29:07.864Z,36.13
2019-03-13T01:31:45.237Z,35.99
2019-03-13T01:34:13.830Z,35.81
2019-03-13T01:36:40.138Z,36.22
2019-03-13T01:39:06.485Z,35.98
2019-03-13T01:41:34.855Z,35.37
2019-03-13T01:44:01.515Z,35.09
2019-03-13T01:46:28.130Z,35.40
2019-03-13T01:48:54.776Z,34.88
2019-03-13T01:51:21.075Z,34.72
2019-03-13T01:53:47.740Z,34.75
2019-03-13T01:56:14.392Z,34.79
2019-03-13T01:58:40.710Z,34.46
2019-03-13T02:01:07.373Z,34.61
2019-03-13T02:03:34.087Z,34.71
2019-03-13T02:06:00.416Z,34.30
2019-03-13T02:08:28.133Z,34.74
2019-03-13T02:10:54.455Z,35.11
2019-03-13T02:13:20.800Z,34.77
2019-03-13T02:15:47.323Z,35.72
2019-03-13T02:18:13.937Z,36.06
2019-03-13T02:20:40.271Z,37.41
2019-03-13T02:23:06.685Z,39.98
2019-03-13T02:25:33.010Z,41.47
2019-03-13T02:27:59.662Z,45.98
2019-03-13T02:30:27.924Z,47.76
2019-03-13T02:32:54.238Z,48.76
2019-03-13T02:35:20.572Z,51.72
2019-03-13T02:37:47.244Z,52.88
2019-03-13T02:40:14.668Z,56.18
2019-03-13T02:42:41.343Z,54.00
2019-03-13T02:45:11.396Z,55.04
2019-03-13T02:47:37.847Z,54.27
2019-03-13T02:50:12.270Z,55.81
2019-03-13T02:52:38.588Z,56.09
2019-03-13T02:55:07.686Z,56.40
2019-03-13T02:57:34.980Z,55.45
2019-03-13T03:00:03.060Z,56.31
2019-03-13T03:02:32.259Z,55.46
2019-03-13T03:04:58.612Z,55.31
2019-03-13T03:07:24.915Z,54.80
2019-03-13T03:09:51.257Z,55.04
2019-03-13T03:12:17.593Z,55.05
2019-03-13T03:14:59.882Z,54.29
2019-03-13T03:17:26.238Z,54.10
2019-03-13T03:19:52.647Z,53.88
2019-03-13T03:22:19.005Z,53.96
2019-03-13T03:24:45.319Z,53.37
2019-03-13T03:27:11.655Z,53.33
2019-03-13T03:29:39.028Z,52.40
2019-03-13T03:32:05.866Z,52.27
2019-03-13T03:34:32.472Z,52.36
2019-03-13T03:36:58.784Z,51.87
2019-03-13T03:39:25.167Z,51.36
2019-03-13T03:41:51.571Z,51.09
2019-03-13T03:44:17.948Z,51.43
2019-03-13T03:46:45.375Z,51.52
2019-03-13T03:49:12.043Z,51.18
2019-03-13T03:51:38.451Z,50.91
2019-03-13T03:54:04.782Z,51.03
2019-03-13T03:56:31.301Z,51.11
2019-03-13T03:58:57.953Z,51.03
2019-03-13T04:01:24.300Z,51.17
2019-03-13T04:03:50.622Z,52.09
2019-03-13T04:06:17.165Z,52.69
2019-03-13T04:08:44.004Z,54.65
2019-03-13T04:11:11.366Z,56.43
2019-03-13T04:13:37.755Z,59.68
2019-03-13T04:16:07.610Z,61.74
2019-03-13T04:18:34.060Z,62.47
2019-03-13T04:21:00.403Z,62.93
2019-03-13T04:23:26.732Z,63.54
2019-03-13T04:25:53.429Z,63.50
2019-03-13T04:28:19.764Z,62.72
2019-03-13T04:30:46.093Z,62.84
2019-03-13T04:33:12.394Z,61.97
2019-03-13T04:35:38.767Z,62.31
2019-03-13T04:38:05.132Z,63.01
2019-03-13T04:40:31.840Z,62.65
2019-03-13T04:42:58.184Z,62.91
2019-03-13T04:45:24.518Z,62.71
2019-03-13T04:47:50.862Z,62.89
2019-03-13T04:50:17.483Z,62.85
2019-03-13T04:52:44.889Z,62.73
2019-03-13T04:55:15.623Z,63.15
2019-03-13T04:57:41.962Z,62.62
2019-03-13T05:00:20.811Z,63.21
2019-03-13T05:02:47.102Z,63.54
2019-03-13T05:05:40.302Z,63.89
2019-03-13T05:08:06.639Z,64.16
2019-03-13T05:10:34.291Z,64.47
2019-03-13T05:13:00.626Z,64.47
2019-03-13T05:15:27.036Z,64.39
2019-03-13T05:17:53.389Z,64.32
2019-03-13T05:20:19.719Z,63.62
2019-03-13T05:22:46.069Z,64.69
2019-03-13T05:25:12.718Z,63.90
2019-03-13T05:27:39.070Z,63.17
2019-03-13T05:30:07.966Z,62.59
2019-03-13T05:32:34.534Z,62.16
2019-03-13T05:35:00.871Z,61.57
2019-03-13T05:37:27.193Z,61.36
2019-03-13T05:39:53.516Z,61.47
2019-03-13T05:42:20.175Z,61.20
2019-03-13T05:44:46.489Z,61.15
2019-03-13T05:47:12.843Z,60.28
2019-03-13T05:49:39.256Z,59.87
2019-03-13T05:52:06.216Z,60.32
2019-03-13T05:54:37.328Z,60.65
2019-03-13T05:57:04.614Z,60.08
2019-03-13T05:59:31.368Z,59.36
2019-03-13T06:01:58.012Z,58.30
2019-03-13T06:04:24.355Z,57.97
2019-03-13T06:06:50.665Z,59.11
2019-03-13T06:09:16.980Z,59.64
2019-03-13T06:11:43.692Z,60.32
2019-03-13T06:14:10.399Z,60.54
2019-03-13T06:16:36.758Z,59.95
2019-03-13T06:19:03.061Z,58.14
2019-03-13T06:21:29.370Z,57.13
2019-03-13T06:23:55.688Z,57.35
2019-03-13T06:26:22.343Z,56.00
2019-03-13T06:28:48.674Z,56.65
2019-03-13T06:31:14.989Z,57.09
2019-03-13T06:33:41.646Z,56.56
2019-03-13T06:36:08.274Z,56.22
2019-03-13T06:38:34.591Z,56.28
2019-03-13T06:41:01.363Z,56.39
2019-03-13T06:43:27.668Z,56.83
2019-03-13T06:45:54.324Z,57.78
2019-03-13T06:48:20.961Z,58.68
2019-03-13T06:50:47.296Z,59.03
2019-03-13T06:53:13.601Z,58.57
2019-03-13T06:55:39.982Z,58.19
2019-03-13T06:58:06.685Z,57.86
2019-03-13T07:00:51.386Z,57.54
2019-03-13T07:03:19.939Z,57.45
2019-03-13T07:05:51.415Z,57.42
2019-03-13T07:08:17.751Z,57.40
2019-03-13T07:10:58.301Z,56.60
2019-03-13T07:13:43.614Z,56.23
2019-03-13T07:16:39.053Z,55.20
2019-03-13T07:19:24.350Z,54.68
2019-03-13T07:21:56.757Z,54.11
2019-03-13T07:24:23.028Z,53.04
2019-03-13T07:26:51.582Z,52.88
2019-03-13T07:29:26.157Z,52.63
2019-03-13T07:31:52.794Z,51.77
2019-03-13T07:34:26.709Z,50.56
2019-03-13T07:37:01.823Z,50.27
2019-03-13T07:39:39.007Z,50.25
2019-03-13T07:42:10.502Z,50.02
2019-03-13T07:44:39.083Z,49.49
2019-03-13T07:47:10.042Z,49.67
2019-03-13T07:49:55.406Z,49.34
2019-03-13T07:52:23.622Z,49.02
2019-03-13T07:54:52.943Z,46.97
2019-03-13T07:57:25.152Z,46.93
2019-03-13T07:59:56.598Z,46.71
2019-03-13T08:02:27.453Z,46.21
2019-03-13T08:04:58.667Z,46.44
2019-03-13T08:07:41.858Z,46.02
2019-03-13T08:10:21.029Z,44.97
2019-03-13T08:12:49.309Z,45.47
2019-03-13T08:15:15.624Z,44.53
2019-03-13T08:17:46.746Z,43.98
2019-03-13T08:20:31.711Z,43.43
2019-03-13T08:23:06.640Z,43.83
2019-03-13T08:25:37.546Z,43.07
2019-03-13T08:28:05.808Z,43.21
2019-03-13T08:30:34.060Z,43.41
2019-03-13T08:33:02.648Z,43.06
2019-03-13T08:35:36.879Z,43.11
2019-03-13T08:38:21.933Z,42.80
2019-03-13T08:40:51.556Z,42.21
2019-03-13T08:43:22.423Z,41.83
2019-03-13T08:45:53.507Z,42.25
2019-03-13T08:48:21.792Z,42.23
2019-03-13T08:50:51.086Z,41.62
2019-03-13T08:53:17.419Z,40.75
2019-03-13T08:56:02.651Z,39.71
2019-03-13T08:58:30.882Z,39.94
2019-03-13T09:01:04.983Z,39.63
2019-03-13T09:03:42.900Z,40.80
2019-03-13T09:06:57.811Z,40.28
2019-03-13T09:09:27.086Z,40.18
2019-03-13T09:12:12.667Z,40.77
2019-03-13T09:14:54.452Z,40.66
2019-03-13T09:17:23.040Z,40.33
2019-03-13T09:19:57.567Z,39.44
2019-03-13T09:22:24.882Z,39.71
2019-03-13T09:25:12.321Z,39.14
2019-03-13T09:27:56.721Z,39.03
2019-03-13T09:30:34.116Z,39.58
2019-03-13T09:33:08.046Z,39.46
2019-03-13T09:36:06.635Z,39.17
2019-03-13T09:38:42.131Z,38.51
2019-03-13T09:41:19.426Z,37.14
2019-03-13T09:43:59.681Z,36.91
2019-03-13T09:46:43.722Z,36.37
2019-03-13T09:49:28.670Z,36.33
2019-03-13T09:51:59.610Z,35.56
2019-03-13T09:54:40.358Z,35.45
2019-03-13T09:57:22.302Z,35.46
2019-03-13T09:59:56.621Z,35.46
2019-03-13T10:02:27.980Z,35.93
2019-03-13T10:05:09.524Z,36.24
2019-03-13T10:07:55.035Z,35.88
2019-03-13T10:10:35.235Z,36.54
2019-03-13T10:13:09.929Z,36.69
2019-03-13T10:15:48.488Z,37.14
2019-03-13T10:18:16.739Z,36.11
2019-03-13T10:21:01.529Z,36.39
2019-03-13T10:23:33.899Z,37.73
2019-03-13T10:26:19.258Z,38.31
2019-03-13T10:29:00.025Z,38.30
2019-03-13T10:31:32.323Z,38.33
2019-03-13T10:34:00.653Z,36.96
2019-03-13T10:36:41.115Z,35.90
2019-03-13T10:39:15.821Z,36.34
2019-03-13T10:41:47.789Z,37.76
2019-03-13T10:44:16.039Z,38.32
2019-03-13T10:47:01.145Z,38.24
2019-03-13T10:49:31.568Z,37.83
2019-03-13T10:52:17.871Z,37.77
2019-03-13T10:54:54.225Z,37.93
2019-03-13T11:00:23.670Z,35.19
2019-03-13T11:02:54.950Z,35.15
2019-03-13T11:05:35.472Z,34.65
2019-03-13T11:08:06.441Z,34.54
2019-03-13T11:10:51.560Z,34.79
2019-03-13T11:13:18.928Z,34.85
2019-03-13T11:15:49.960Z,35.89
2019-03-13T11:18:21.250Z,35.52
2019-03-13T11:20:49.517Z,34.68
2019-03-13T11:23:23.542Z,34.81
2019-03-13T11:25:57.906Z,37.07
2019-03-13T11:28:26.099Z,36.93
2019-03-13T11:31:11.613Z,37.84
2019-03-13T11:33:42.707Z,38.03
2019-03-13T11:36:27.542Z,38.20
2019-03-13T11:38:59.732Z,38.18
2019-03-13T11:41:29.054Z,38.12
2019-03-13T11:43:57.594Z,38.00
2019-03-13T11:46:28.490Z,38.63
2019-03-13T11:49:00.768Z,38.20
2019-03-13T11:51:38.292Z,36.93
2019-03-13T11:54:19.716Z,34.50
2019-03-13T11:56:54.199Z,32.85
2019-03-13T11:59:25.106Z,28.77
2019-03-13T12:01:55.980Z,28.22
2019-03-13T12:04:24.188Z,28.87
2019-03-13T12:06:52.448Z,29.19
2019-03-13T12:09:24.656Z,32.78
2019-03-13T12:11:57.354Z,34.25
2019-03-13T12:14:28.487Z,36.18
2019-03-13T12:16:56.716Z,36.98
2019-03-13T12:19:34.062Z,38.07
2019-03-13T12:22:05.514Z,39.30
2019-03-13T12:24:36.779Z,40.05
2019-03-13T12:27:07.637Z,40.14
2019-03-13T12:29:40.071Z,40.79
2019-03-13T12:32:09.333Z,40.40
2019-03-13T12:34:43.490Z,38.38
2019-03-13T12:37:20.675Z,39.35
2019-03-13T12:40:01.061Z,39.19
2019-03-13T12:42:44.249Z,35.51
2019-03-13T12:45:32.266Z,32.55
2019-03-13T12:48:16.209Z,28.42
2019-03-13T12:50:36.596Z,27.13
2019-03-13T12:53:07.545Z,27.13
2019-03-13T12:55:44.949Z,25.90
2019-03-13T12:58:16.639Z,24.93
2019-03-13T13:00:53.762Z,26.04
2019-03-13T13:03:32.408Z,24.04
2019-03-13T13:06:01.733Z,21.89
2019-03-13T13:08:37.278Z,21.16
2019-03-13T13:11:09.535Z,20.73
2019-03-13T13:13:49.851Z,21.77
2019-03-13T13:16:18.082Z,23.00
2019-03-13T13:18:53.322Z,22.72
2019-03-13T13:21:20.695Z,22.14
2019-03-13T13:23:47.639Z,23.33
2019-03-13T13:26:14.327Z,24.61
2019-03-13T13:28:40.669Z,23.20
2019-03-13T13:31:07.322Z,20.81
2019-03-13T13:33:33.764Z,19.87
2019-03-13T13:36:00.079Z,20.70
2019-03-13T13:38:28.512Z,20.06
2019-03-13T13:40:55.105Z,20.38
2019-03-13T13:43:21.440Z,19.14
2019-03-13T13:45:53.536Z,20.67
2019-03-13T13:48:19.868Z,22.40
2019-03-13T13:50:46.481Z,24.21
2019-03-13T13:53:12.826Z,24.38
2019-03-13T13:55:39.194Z,22.17
2019-03-13T13:58:05.597Z,23.07
2019-03-13T14:00:31.949Z,27.66
2019-03-13T14:02:58.742Z,27.41
2019-03-13T14:05:25.090Z,27.21
2019-03-13T14:07:51.781Z,26.30
2019-03-13T14:10:18.231Z,25.00
2019-03-13T14:12:44.576Z,26.84
2019-03-13T14:15:13.101Z,24.60
2019-03-13T14:17:39.832Z,20.99
2019-03-13T14:20:18.069Z,22.42
2019-03-13T14:22:44.428Z,25.68
2019-03-13T14:25:13.089Z,28.77
2019-03-13T14:27:39.665Z,28.04
2019-03-13T14:30:20.360Z,31.00
2019-03-13T14:32:46.812Z,31.49
2019-03-13T14:35:13.376Z,31.44
2019-03-13T14:37:39.987Z,31.55
2019-03-13T14:40:12.973Z,31.82
2019-03-13T14:42:40.862Z,32.98
2019-03-13T14:45:11.439Z,33.71
2019-03-13T14:47:37.771Z,34.06
2019-03-13T14:50:12.113Z,33.38
2019-03-13T14:52:38.742Z,34.61
2019-03-13T14:55:10.052Z,34.78
2019-03-13T14:57:37.401Z,35.46
2019-03-13T15:00:22.451Z,35.94
2019-03-13T15:02:48.783Z,36.72
2019-03-13T15:05:15.617Z,36.63
2019-03-13T15:07:42.321Z,36.78
2019-03-13T15:10:17.364Z,36.67
2019-03-13T15:12:45.197Z,36.25
2019-03-13T15:15:18.987Z,36.79
2019-03-13T15:17:45.371Z,36.91
2019-03-13T15:20:18.098Z,36.73
2019-03-13T15:22:44.462Z,35.89
2019-03-13T15:25:12.213Z,36.56
2019-03-13T15:27:38.544Z,36.32
2019-03-13T15:30:26.366Z,36.81
2019-03-13T15:32:53.070Z,36.71
2019-03-13T15:35:20.628Z,37.05
2019-03-13T15:37:47.244Z,37.17
2019-03-13T15:40:18.111Z,36.96
2019-03-13T15:42:45.138Z,37.27
2019-03-13T15:45:28.643Z,37.11
2019-03-13T15:47:55.073Z,37.04
2019-03-13T15:50:21.390Z,37.17
2019-03-13T15:52:47.740Z,37.69
2019-03-13T15:55:18.201Z,37.42
2019-03-13T15:57:44.743Z,37.45
2019-03-13T16:00:25.511Z,37.37
2019-03-13T16:02:55.383Z,37.96
2019-03-13T16:05:20.714Z,38.33
2019-03-13T16:07:47.156Z,37.84
2019-03-13T16:10:17.178Z,37.69
2019-03-13T16:12:44.972Z,38.21
2019-03-13T16:15:19.155Z,37.97
2019-03-13T16:17:46.322Z,38.16
2019-03-13T16:20:15.248Z,38.28
2019-03-13T16:22:43.897Z,38.65
2019-03-13T16:25:11.711Z,38.22
2019-03-13T16:27:38.241Z,39.01
2019-03-13T16:30:10.620Z,39.33
2019-03-13T16:32:43.967Z,39.11
2019-03-13T16:35:08.358Z,39.19
2019-03-13T16:37:34.965Z,38.95
2019-03-13T16:40:01.281Z,39.39
2019-03-13T16:42:27.607Z,39.98
2019-03-13T16:44:54.359Z,39.95
2019-03-13T16:47:20.710Z,40.03
2019-03-13T16:49:47.352Z,39.70
2019-03-13T16:52:13.990Z,39.89
2019-03-13T16:54:40.621Z,39.78
2019-03-13T16:57:06.924Z,39.63
2019-03-13T16:59:33.624Z,40.05
2019-03-13T17:02:00.475Z,39.64
2019-03-13T17:04:26.838Z,40.03
2019-03-13T17:06:53.506Z,40.24
2019-03-13T17:09:19.871Z,40.32
2019-03-13T17:11:46.767Z,39.98
2019-03-13T17:14:13.421Z,39.55
2019-03-13T17:16:39.783Z,39.98
2019-03-13T17:19:06.298Z,40.09
2019-03-13T17:21:33.845Z,40.39
2019-03-13T17:24:00.470Z,40.12
2019-03-13T17:26:26.834Z,40.17
2019-03-13T17:28:53.165Z,40.11
2019-03-13T17:31:19.483Z,39.95
2019-03-13T17:33:46.102Z,40.03
2019-03-13T17:36:12.411Z,40.19
2019-03-13T17:38:38.799Z,40.53
2019-03-13T17:41:05.122Z,40.66
2019-03-13T17:43:39.187Z,40.33
2019-03-13T17:46:00.219Z,40.84
2019-03-13T17:48:26.589Z,40.85
2019-03-13T17:50:53.303Z,40.40
2019-03-13T17:53:19.716Z,40.61
2019-03-13T17:55:46.124Z,40.89
2019-03-13T17:58:12.918Z,40.94
2019-03-13T18:00:44.531Z,40.78
2019-03-13T18:03:10.839Z,40.99
2019-03-13T18:05:37.184Z,41.27
2019-03-13T18:08:04.607Z,41.50
2019-03-13T18:10:31.223Z,41.57
2019-03-13T18:12:57.541Z,42.20
2019-03-13T18:15:23.893Z,41.52
2019-03-13T18:17:50.495Z,41.64
2019-03-13T18:20:22.271Z,42.05
2019-03-13T18:22:49.057Z,41.95
2019-03-13T18:25:18.163Z,42.20
2019-03-13T18:27:44.171Z,42.20
2019-03-13T18:30:21.229Z,42.41
2019-03-13T18:32:48.830Z,42.88
2019-03-13T18:35:16.114Z,43.19
2019-03-13T18:37:42.439Z,43.44
2019-03-13T18:40:14.996Z,43.39
2019-03-13T18:42:41.619Z,43.76
2019-03-13T18:45:17.851Z,43.83
2019-03-13T18:47:44.247Z,43.93
2019-03-13T18:50:14.125Z,43.99
2019-03-13T18:52:40.527Z,44.14
2019-03-13T18:55:10.961Z,43.77
2019-03-13T18:57:37.622Z,43.86
2019-03-13T19:00:15.720Z,44.23
2019-03-13T19:02:42.043Z,44.06
2019-03-13T19:05:13.435Z,44.12
2019-03-13T19:07:40.017Z,44.04
2019-03-13T19:10:11.255Z,44.68
2019-03-13T19:12:37.698Z,44.82
2019-03-13T19:15:12.113Z,45.00
2019-03-13T19:17:38.773Z,45.27
2019-03-13T19:20:16.243Z,45.55
2019-03-13T19:22:44.443Z,45.53
2019-03-13T19:25:13.025Z,45.47
2019-03-13T19:27:39.810Z,45.77
2019-03-13T19:30:22.661Z,46.09
2019-03-13T19:32:49.176Z,46.52
2019-03-13T19:35:15.629Z,46.86
2019-03-13T19:37:42.362Z,47.16
2019-03-13T19:40:13.023Z,46.91
2019-03-13T19:42:39.487Z,47.00
2019-03-13T19:45:13.979Z,47.74
2019-03-13T19:47:40.603Z,47.76
2019-03-13T19:50:08.819Z,47.79
2019-03-13T19:52:35.329Z,49.03
2019-03-13T19:55:01.945Z,49.13
2019-03-13T19:57:28.681Z,48.96
2019-03-13T19:59:56.258Z,49.32
2019-03-13T20:02:23.878Z,49.48
2019-03-13T20:04:51.300Z,49.93
2019-03-13T20:07:17.922Z,50.49
2019-03-13T20:09:44.555Z,50.27
2019-03-13T20:12:14.018Z,50.17
2019-03-13T20:14:39.436Z,50.25
2019-03-13T20:17:06.764Z,50.99
2019-03-13T20:19:33.515Z,51.07
2019-03-13T20:22:00.103Z,50.98
2019-03-13T20:24:26.459Z,52.08
2019-03-13T20:26:53.198Z,52.93
2019-03-13T20:29:19.517Z,53.75
2019-03-13T20:31:48.520Z,53.72
2019-03-13T20:34:15.142Z,54.85
2019-03-13T20:36:41.786Z,55.79
2019-03-13T20:39:08.434Z,55.15
2019-03-13T20:41:35.691Z,55.13
2019-03-13T20:44:02.422Z,55.05
2019-03-13T20:46:28.734Z,55.12
2019-03-13T20:48:55.097Z,55.16
2019-03-13T20:51:22.519Z,55.28
2019-03-13T20:53:49.694Z,54.89
2019-03-13T20:56:16.045Z,55.44
2019-03-13T20:58:42.643Z,54.63
2019-03-13T21:01:09.686Z,54.88
2019-03-13T21:03:36.776Z,54.79
2019-03-13T21:06:04.262Z,54.87
2019-03-13T21:08:30.700Z,55.21
2019-03-13T21:10:57.081Z,54.45
2019-03-13T21:13:23.929Z,55.00
2019-03-13T21:15:50.351Z,55.30
2019-03-13T21:18:17.013Z,54.78
2019-03-13T21:20:44.034Z,55.36
2019-03-13T21:23:11.568Z,54.98
2019-03-13T21:25:38.560Z,55.00
2019-03-13T21:28:05.187Z,55.39
2019-03-13T21:30:31.841Z,55.32
2019-03-13T21:32:58.555Z,55.74
2019-03-13T21:35:26.362Z,55.56
2019-03-13T21:37:52.690Z,55.53
2019-03-13T21:40:22.956Z,55.31
2019-03-13T21:42:49.656Z,54.80
2019-03-13T21:45:22.579Z,55.29
2019-03-13T21:47:44.737Z,54.91
2019-03-13T21:50:16.637Z,55.52
2019-03-13T21:52:43.208Z,55.56
2019-03-13T21:55:14.595Z,55.90
2019-03-13T21:57:42.043Z,55.89
2019-03-13T22:00:26.438Z,56.29
2019-03-13T22:02:53.488Z,56.06
2019-03-13T22:05:26.109Z,56.06
2019-03-13T22:07:50.200Z,56.36
2019-03-13T22:10:18.303Z,56.51
2019-03-13T22:12:45.120Z,56.58
2019-03-13T22:15:17.984Z,56.41
2019-03-13T22:17:44.327Z,56.42
2019-03-13T22:20:13.910Z,56.63
2019-03-13T22:22:40.360Z,56.64
2019-03-13T22:25:12.059Z,56.79
2019-03-13T22:27:39.399Z,57.28
2019-03-13T22:30:11.217Z,57.08
2019-03-13T22:32:37.552Z,56.77
2019-03-13T22:35:04.516Z,57.30
2019-03-13T22:37:31.128Z,57.33
2019-03-13T22:39:57.920Z,56.83
2019-03-13T22:42:24.739Z,56.85
2019-03-13T22:44:51.069Z,56.91
2019-03-13T22:47:18.739Z,56.60
2019-03-13T22:49:45.387Z,57.10
2019-03-13T22:52:11.732Z,56.60
2019-03-13T22:54:38.083Z,56.83
2019-03-13T22:57:04.801Z,57.28
2019-03-13T22:59:31.183Z,57.48
2019-03-13T23:01:57.519Z,57.52
2019-03-13T23:04:24.201Z,57.59
2019-03-13T23:06:50.835Z,58.12
2019-03-13T23:09:18.119Z,57.65
2019-03-13T23:11:44.785Z,57.47
2019-03-13T23:14:11.460Z,57.75
2019-03-13T23:16:38.087Z,57.84
2019-03-13T23:19:04.413Z,58.11
2019-03-13T23:21:30.722Z,58.05
2019-03-13T23:23:57.046Z,58.15
2019-03-13T23:26:23.459Z,58.30
2019-03-13T23:28:50.167Z,58.30
2019-03-13T23:31:16.933Z,58.44
2019-03-13T23:33:43.244Z,58.10
2019-03-13T23:36:09.596Z,58.09
2019-03-13T23:38:36.195Z,58.36
2019-03-13T23:41:02.538Z,59.02
2019-03-13T23:43:28.884Z,58.71
2019-03-13T23:45:55.204Z,59.34
2019-03-13T23:48:21.535Z,59.24
2019-03-13T23:50:48.180Z,59.22
2019-03-13T23:53:14.527Z,59.05
2019-03-13T23:55:41.140Z,59.07
2019-03-13T23:58:07.502Z,59.22
